Time;durP1;ratioP1;P1;durP2;ratioP2;P2;SDS_P1;SDS_P2;PMS_P1;PMS_P2;Temp;Humidity;BMP_temperature;BMP_pressure;BME280_temperature;BME280_humidity;BME280_pressure;Samples;Min_cycle;Max_cycle;Signal;HPM_P1;HPM_P2
2021/03/23 09:46:10;;;;;;;63.03;9.82;;;23.90;99.90;;;;;;5074445;27;20568;-70
2021/03/23 09:49:03;;;;;;;52.60;10.43;;;23.10;99.90;;;;;;5059572;27;20236;-72
2021/03/23 09:51:45;;;;;;;56.90;11.00;;;23.30;99.90;;;;;;5040154;28;20266;-69
2021/03/23 09:54:21;;;;;;;64.07;10.57;;;23.40;99.90;;;;;;5063732;28;20281;-72
2021/03/23 09:56:52;;;;;;;54.90;10.90;;;23.40;99.90;;;;;;5056342;28;20183;-70
2021/03/23 09:59:29;;;;;;;64.53;10.48;;;23.40;99.90;;;;;;5058460;28;20211;-71
2021/03/23 10:02:36;;;;;;;77.88;10.27;;;23.20;99.90;;;;;;5071551;28;20213;-72
2021/03/23 10:05:32;;;;;;;57.08;9.40;;;23.10;99.90;;;;;;5043013;28;20222;-72
2021/03/23 10:08:19;;;;;;;64.13;10.48;;;22.90;99.90;;;;;;5057738;28;21354;-70
2021/03/23 10:10:46;;;;;;;61.42;9.35;;;23.20;99.90;;;;;;5055016;28;20894;-70
2021/03/23 10:13:47;;;;;;;65.65;10.25;;;23.50;99.90;;;;;;5058129;28;20655;-70
2021/03/23 10:16:33;;;;;;;69.70;9.15;;;23.70;99.90;;;;;;5058318;28;20195;-69
2021/03/23 10:19:24;;;;;;;51.50;8.88;;;23.90;99.90;;;;;;5059915;28;20218;-70
2021/03/23 10:21:54;;;;;;;46.70;8.38;;;23.80;99.90;;;;;;5056531;28;20191;-70
2021/03/23 10:24:25;;;;;;;50.25;9.27;;;23.70;99.90;;;;;;5063464;28;20218;-72
2021/03/23 10:26:55;;;;;;;49.70;8.80;;;23.80;99.90;;;;;;5046438;28;20195;-71
2021/03/23 10:29:25;;;;;;;41.78;8.48;;;23.70;99.90;;;;;;5039989;28;20187;-73
2021/03/23 10:31:56;;;;;;;55.38;9.52;;;23.80;99.90;;;;;;5069372;28;20176;-71
2021/03/23 10:34:27;;;;;;;54.85;9.52;;;23.70;99.90;;;;;;5054395;28;20190;-71
2021/03/23 10:37:07;;;;;;;60.30;10.45;;;23.70;99.90;;;;;;5036938;28;20198;-73
2021/03/23 10:39:49;;;;;;;61.67;10.00;;;23.70;99.90;;;;;;5035140;28;20218;-73
2021/03/23 10:42:25;;;;;;;57.35;10.40;;;23.70;99.90;;;;;;5038312;28;20503;-71
2021/03/23 10:45:21;;;;;;;59.60;9.18;;;23.60;99.90;;;;;;5054560;28;20214;-71
2021/03/23 10:47:47;;;;;;;58.92;9.80;;;23.60;99.90;;;;;;5053130;28;20223;-71
2021/03/23 10:50:27;;;;;;;52.65;9.52;;;23.70;99.90;;;;;;5056825;28;20794;-70
2021/03/23 10:53:23;;;;;;;60.63;10.07;;;23.50;99.90;;;;;;5054960;28;20199;-72
2021/03/23 10:55:53;;;;;;;57.95;9.63;;;23.40;99.90;;;;;;5041248;28;20198;-71
2021/03/23 10:58:25;;;;;;;71.70;11.35;;;23.10;99.90;;;;;;5042324;28;20195;-71
2021/03/23 11:01:16;;;;;;;75.85;11.20;;;23.20;99.90;;;;;;5041203;28;20222;-70
2021/03/23 11:03:45;;;;;;;72.60;12.25;;;22.90;99.90;;;;;;5045332;28;20274;-70
2021/03/23 11:06:35;;;;;;;93.68;11.55;;;23.10;99.90;;;;;;5027393;28;20199;-71
2021/03/23 11:09:07;;;;;;;86.57;12.23;;;23.10;99.90;;;;;;5031587;28;20184;-72
2021/03/23 11:11:35;;;;;;;68.13;10.13;;;22.70;99.90;;;;;;5035555;28;20653;-70
2021/03/23 11:14:02;;;;;;;79.00;10.95;;;22.60;99.90;;;;;;5039455;28;20192;-71
2021/03/23 11:16:35;;;;;;;69.15;12.00;;;22.70;99.90;;;;;;5037941;28;20191;-70
2021/03/23 11:19:04;;;;;;;62.58;10.32;;;22.70;99.90;;;;;;5035872;28;20192;-72
2021/03/23 11:21:37;;;;;;;60.40;8.73;;;22.80;99.90;;;;;;5022306;28;20184;-70
2021/03/23 11:24:06;;;;;;;72.22;9.73;;;22.70;99.90;;;;;;5059340;28;20226;-69
2021/03/23 11:26:33;;;;;;;53.80;9.90;;;22.50;99.90;;;;;;5032574;28;20202;-73
2021/03/23 11:29:03;;;;;;;50.55;8.93;;;22.30;99.90;;;;;;5039027;28;20291;-69
2021/03/23 11:31:34;;;;;;;66.80;10.60;;;22.20;99.90;;;;;;5038954;28;20194;-71
2021/03/23 11:34:04;;;;;;;49.15;8.65;;;22.20;99.90;;;;;;5044689;28;20202;-69
2021/03/23 11:36:31;;;;;;;49.55;8.73;;;22.20;99.90;;;;;;5043938;28;20575;-70
2021/03/23 11:38:58;;;;;;;49.25;8.82;;;22.10;99.90;;;;;;5043709;28;20196;-69
2021/03/23 11:41:35;;;;;;;46.72;7.97;;;22.00;99.90;;;;;;5045902;28;20194;-69
2021/03/23 11:44:10;;;;;;;57.67;8.73;;;22.00;99.90;;;;;;5043363;28;20212;-71
2021/03/23 11:46:55;;;;;;;47.00;9.25;;;21.90;99.90;;;;;;5038438;28;20185;-72
2021/03/23 11:49:57;;;;;;;53.28;9.52;;;21.80;99.90;;;;;;5044524;28;20198;-70
2021/03/23 11:52:25;;;;;;;62.50;10.07;;;21.50;99.90;;;;;;5040637;28;20423;-72
2021/03/23 11:54:52;;;;;;;45.77;9.27;;;21.30;99.90;;;;;;5041417;28;20282;-70
2021/03/23 11:57:19;;;;;;;56.20;9.60;;;21.20;99.90;;;;;;5016009;28;20184;-71
2021/03/23 11:59:46;;;;;;;50.83;10.47;;;21.10;99.90;;;;;;5024058;28;20194;-71
2021/03/23 12:02:13;;;;;;;55.60;10.05;;;21.00;99.90;;;;;;5041614;28;20736;-71
2021/03/23 12:04:40;;;;;;;63.20;9.60;;;20.90;99.90;;;;;;5044526;28;20191;-70
2021/03/23 12:07:35;;;;;;;57.90;10.33;;;20.60;99.90;;;;;;5038392;28;20188;-69
2021/03/23 12:10:21;;;;;;;57.57;10.13;;;20.20;99.90;;;;;;5043132;28;20191;-74
2021/03/23 12:13:15;;;;;;;62.47;10.37;;;20.20;99.90;;;;;;5040709;28;20620;-71
2021/03/23 12:16:10;;;;;;;54.87;9.53;;;20.00;99.90;;;;;;5040565;28;20298;-71
2021/03/23 12:18:41;;;;;;;49.20;8.87;;;20.10;99.90;;;;;;5041777;28;20729;-71
2021/03/23 12:21:08;;;;;;;62.30;10.53;;;20.00;99.90;;;;;;5039469;28;20257;-72
2021/03/23 12:23:35;;;;;;;66.23;10.10;;;19.80;99.90;;;;;;5041978;28;20183;-71
2021/03/23 12:26:02;;;;;;;61.67;10.17;;;19.70;99.90;;;;;;5040873;28;20212;-73
2021/03/23 12:28:30;;;;;;;49.23;10.43;;;19.60;99.90;;;;;;5029539;28;20222;-71
2021/03/23 12:30:56;;;;;;;54.37;9.33;;;19.50;99.90;;;;;;5041194;28;20225;-73
2021/03/23 12:33:23;;;;;;;56.93;9.63;;;19.70;99.90;;;;;;5044759;28;20184;-72
2021/03/23 12:35:50;;;;;;;55.87;9.20;;;19.70;99.90;;;;;;5023961;28;20192;-71
2021/03/23 12:38:19;;;;;;;45.83;8.73;;;19.50;99.90;;;;;;5043031;28;20199;-71
2021/03/23 12:40:46;;;;;;;73.40;11.07;;;19.60;99.90;;;;;;5026764;28;20198;-71
2021/03/23 12:43:24;;;;;;;62.53;11.20;;;19.40;99.90;;;;;;5043896;28;20187;-73
2021/03/23 12:45:51;;;;;;;76.43;11.23;;;19.20;99.90;;;;;;5024936;28;20830;-68
2021/03/23 12:48:18;;;;;;;87.87;12.87;;;19.00;99.90;;;;;;5032697;28;20355;-68
2021/03/23 12:50:45;;;;;;;127.93;15.97;;;18.70;99.90;;;;;;5041981;28;20207;-70
2021/03/23 12:53:17;;;;;;;128.57;18.17;;;18.70;99.90;;;;;;5038653;28;20235;-69
2021/03/23 12:55:50;;;;;;;124.67;17.00;;;18.50;99.90;;;;;;5051794;28;20477;-70
2021/03/23 12:58:32;;;;;;;124.70;17.90;;;18.60;99.90;;;;;;5033255;28;20194;-71
2021/03/23 13:00:59;;;;;;;147.07;19.27;;;18.80;99.90;;;;;;5032329;28;20216;-69
2021/03/23 13:03:25;;;;;;;135.90;18.93;;;18.80;99.90;;;;;;5043933;28;20838;-69
2021/03/23 13:05:54;;;;;;;150.77;20.50;;;18.80;99.90;;;;;;5039795;28;20212;-71
2021/03/23 13:08:31;;;;;;;161.03;19.80;;;19.00;99.90;;;;;;5026220;28;20179;-69
2021/03/23 13:11:17;;;;;;;156.23;20.43;;;19.00;99.90;;;;;;5044073;28;20179;-71
2021/03/23 13:14:03;;;;;;;166.17;20.70;;;19.10;99.90;;;;;;5058185;28;20191;-72
2021/03/23 13:16:33;;;;;;;170.50;20.53;;;19.30;99.90;;;;;;5028808;28;20584;-73
2021/03/23 13:19:06;;;;;;;161.33;19.60;;;19.30;99.90;;;;;;5019086;28;20206;-70
2021/03/23 13:21:43;;;;;;;149.00;19.33;;;19.40;99.90;;;;;;5035866;28;20179;-69
2021/03/23 13:24:39;;;;;;;127.27;18.53;;;19.30;99.90;;;;;;5040555;28;20252;-71
2021/03/23 13:27:28;;;;;;;100.37;16.00;;;19.30;99.90;;;;;;5039099;28;20552;-71
2021/03/23 13:29:59;;;;;;;113.80;15.60;;;19.30;99.90;;;;;;5015788;28;20204;-72
2021/03/23 13:32:30;;;;;;;103.00;15.37;;;19.00;99.90;;;;;;5050822;28;20216;-69
2021/03/23 13:35:06;;;;;;;106.97;16.03;;;18.80;99.90;;;;;;5029538;28;20217;-70
2021/03/23 13:37:38;;;;;;;89.90;15.23;;;18.80;99.90;;;;;;5046257;28;20241;-70
2021/03/23 13:40:32;;;;;;;91.67;14.53;;;18.90;99.90;;;;;;5026204;28;20602;-70
2021/03/23 13:43:04;;;;;;;105.77;16.10;;;19.00;99.90;;;;;;5030421;28;20211;-70
2021/03/23 13:46:00;;;;;;;89.53;13.57;;;19.10;99.90;;;;;;5029121;28;20690;-71
2021/03/23 13:48:32;;;;;;;91.63;14.73;;;18.90;99.90;;;;;;5042717;28;20403;-68
2021/03/23 13:51:04;;;;;;;89.30;15.13;;;18.90;99.90;;;;;;5029847;28;20183;-69
2021/03/23 13:53:50;;;;;;;76.87;12.40;;;18.80;99.90;;;;;;5043328;28;20195;-70
2021/03/23 13:56:21;;;;;;;79.03;13.50;;;18.70;99.90;;;;;;5029897;28;20188;-69
2021/03/23 13:58:49;;;;;;;82.53;13.47;;;18.60;99.90;;;;;;5023956;28;20226;-69
2021/03/23 14:01:17;;;;;;;82.87;14.97;;;18.60;99.90;;;;;;5033572;28;20206;-69
2021/03/23 14:03:46;;;;;;;87.20;15.03;;;18.40;99.90;;;;;;5027574;28;20184;-69
2021/03/23 14:06:25;;;;;;;92.00;13.13;;;18.40;99.90;;;;;;5047306;28;20603;-70
2021/03/23 14:08:55;;;;;;;91.17;14.73;;;18.30;99.90;;;;;;5044613;28;20608;-70
2021/03/23 14:11:27;;;;;;;71.63;12.57;;;18.50;99.90;;;;;;5058793;28;20184;-70
2021/03/23 14:13:55;;;;;;;97.23;14.17;;;18.50;99.90;;;;;;5030150;28;20649;-70
2021/03/23 14:16:21;;;;;;;84.07;12.87;;;18.40;99.90;;;;;;5040907;28;20172;-70
2021/03/23 14:18:48;;;;;;;69.90;13.13;;;18.40;99.90;;;;;;5040067;28;20249;-71
2021/03/23 14:21:21;;;;;;;76.83;12.80;;;18.30;99.90;;;;;;5041796;28;20697;-69
2021/03/23 14:23:49;;;;;;;66.63;12.67;;;18.10;99.90;;;;;;5041336;28;20176;-69
2021/03/23 14:26:17;;;;;;;79.83;12.17;;;18.10;99.90;;;;;;5025104;28;20188;-71
2021/03/23 14:28:53;;;;;;;61.33;11.30;;;18.10;99.90;;;;;;5041080;28;20655;-69
2021/03/23 14:31:23;;;;;;;64.27;12.63;;;17.90;99.90;;;;;;5033615;28;20180;-69
2021/03/23 14:33:51;;;;;;;65.33;10.37;;;17.80;99.90;;;;;;5034174;28;20206;-71
2021/03/23 14:36:23;;;;;;;87.17;12.27;;;17.80;99.90;;;;;;5035652;28;20620;-70
2021/03/23 14:38:51;;;;;;;79.50;11.30;;;17.90;99.90;;;;;;5043461;28;20710;-72
2021/03/23 14:41:32;;;;;;;75.93;11.30;;;17.90;99.90;;;;;;5045579;28;20187;-69
2021/03/23 14:43:59;;;;;;;54.33;10.60;;;17.90;99.90;;;;;;5044039;28;20223;-69
2021/03/23 14:46:30;;;;;;;62.77;10.03;;;17.90;99.90;;;;;;5045331;28;20453;-72
2021/03/23 14:48:57;;;;;;;52.47;10.07;;;17.70;99.90;;;;;;5044706;28;20179;-71
2021/03/23 14:51:26;;;;;;;71.20;10.63;;;17.70;99.90;;;;;;5044689;28;20198;-68
2021/03/23 14:53:56;;;;;;;65.37;10.00;;;17.60;99.90;;;;;;5043301;28;20188;-71
2021/03/23 14:56:35;;;;;;;53.03;9.40;;;17.60;99.90;;;;;;5024995;28;20182;-70
2021/03/23 14:59:02;;;;;;;35.47;8.10;;;17.60;99.90;;;;;;5042229;28;20207;-70
2021/03/23 15:01:29;;;;;;;52.43;9.47;;;17.40;99.90;;;;;;5041312;28;20626;-70
2021/03/23 15:03:56;;;;;;;65.93;8.50;;;17.20;99.90;;;;;;5035960;28;20536;-68
2021/03/23 15:06:26;;;;;;;45.67;9.60;;;17.20;99.90;;;;;;5043876;28;20175;-68
2021/03/23 15:09:23;;;;;;;49.23;8.03;;;17.00;99.90;;;;;;5039375;28;20196;-68
2021/03/23 15:11:51;;;;;;;53.83;8.33;;;16.90;99.90;;;;;;5042728;28;20222;-68
2021/03/23 15:14:17;;;;;;;66.80;9.70;;;16.70;99.90;;;;;;5048560;28;20183;-68
2021/03/23 15:16:44;;;;;;;52.70;9.37;;;16.70;99.90;;;;;;5041871;28;20254;-69
2021/03/23 15:19:11;;;;;;;57.40;9.37;;;16.70;99.90;;;;;;5029204;28;20191;-69
2021/03/23 15:21:42;;;;;;;50.60;8.83;;;16.70;99.90;;;;;;5044446;28;20390;-69
2021/03/23 15:24:20;;;;;;;47.80;8.07;;;16.60;99.90;;;;;;5040300;28;20874;-70
2021/03/23 15:26:47;;;;;;;38.23;7.87;;;16.50;99.90;;;;;;5044728;28;20866;-69
2021/03/23 15:29:23;;;;;;;47.53;7.57;;;16.30;99.90;;;;;;5043791;28;20184;-68
2021/03/23 15:31:50;;;;;;;42.40;8.40;;;16.20;99.90;;;;;;5044305;28;20183;-69
2021/03/23 15:34:20;;;;;;;47.00;7.83;;;16.20;99.90;;;;;;5032211;28;20815;-69
2021/03/23 15:36:51;;;;;;;42.40;7.50;;;15.90;99.90;;;;;;5036286;28;20188;-71
2021/03/23 15:39:23;;;;;;;47.13;6.90;;;15.80;99.90;;;;;;5040802;28;20340;-68
2021/03/23 15:42:05;;;;;;;44.90;7.00;;;15.70;99.90;;;;;;5045173;28;20206;-70
2021/03/23 15:44:33;;;;;;;47.87;7.80;;;15.60;99.90;;;;;;5046282;28;20289;-67
2021/03/23 15:46:59;;;;;;;50.60;7.53;;;15.40;99.90;;;;;;5025138;28;20817;-69
2021/03/23 15:49:26;;;;;;;39.87;7.60;;;15.40;99.90;;;;;;5058683;28;20591;-70
2021/03/23 15:51:55;;;;;;;36.07;6.97;;;15.40;99.90;;;;;;5022365;28;20227;-68
2021/03/23 15:54:22;;;;;;;44.57;8.27;;;15.30;99.90;;;;;;5028262;28;20679;-68
2021/03/23 15:56:48;;;;;;;52.73;8.13;;;15.20;99.90;;;;;;5040960;28;20218;-69
2021/03/23 15:59:18;;;;;;;42.63;6.93;;;15.20;99.90;;;;;;5040080;28;20342;-68
2021/03/23 16:01:44;;;;;;;45.60;7.10;;;15.20;99.90;;;;;;5031317;28;20202;-70
2021/03/23 16:04:13;;;;;;;47.83;7.77;;;15.20;99.90;;;;;;5032692;28;20204;-69
2021/03/23 16:06:40;;;;;;;40.77;6.60;;;15.20;99.90;;;;;;5031870;28;21068;-67
2021/03/23 16:09:30;;;;;;;41.27;7.10;;;15.20;99.90;;;;;;5029560;28;20196;-68
2021/03/23 16:12:04;;;;;;;40.63;6.60;;;15.10;99.90;;;;;;5043630;28;20194;-68
2021/03/23 16:14:33;;;;;;;42.97;6.57;;;15.10;99.90;;;;;;5040905;28;20241;-70
2021/03/23 16:17:03;;;;;;;43.83;7.37;;;15.10;99.90;;;;;;5028221;28;20207;-69
2021/03/23 16:19:31;;;;;;;41.90;6.90;;;15.10;99.90;;;;;;5050264;28;20223;-69
2021/03/23 16:21:58;;;;;;;49.17;6.33;;;15.00;99.90;;;;;;5041888;28;20201;-69
2021/03/23 16:24:29;;;;;;;55.57;8.00;;;15.00;99.90;;;;;;5025057;28;20540;-69
2021/03/23 16:26:55;;;;;;;45.37;7.33;;;15.00;99.90;;;;;;5041323;28;20191;-69
2021/03/23 16:29:22;;;;;;;45.27;7.53;;;15.00;99.90;;;;;;5045254;28;20726;-69
2021/03/23 16:31:50;;;;;;;53.60;6.87;;;14.90;99.90;;;;;;5042457;28;20191;-68
2021/03/23 16:34:30;;;;;;;48.37;7.60;;;14.80;99.90;;;;;;5046928;28;20184;-68
2021/03/23 16:37:00;;;;;;;46.60;6.93;;;14.80;99.90;;;;;;5042671;28;20188;-69
2021/03/23 16:39:30;;;;;;;42.53;7.83;;;14.80;99.90;;;;;;5029962;28;20191;-68
2021/03/23 16:41:57;;;;;;;44.97;6.97;;;14.80;99.90;;;;;;5042015;28;20188;-69
2021/03/23 16:44:31;;;;;;;43.33;6.57;;;14.80;99.90;;;;;;5041372;28;20218;-67
2021/03/23 16:47:00;;;;;;;41.93;6.40;;;14.80;99.90;;;;;;5023800;28;20184;-67
2021/03/23 16:49:26;;;;;;;49.60;7.53;;;14.80;99.90;;;;;;5039862;28;20229;-71
2021/03/23 16:52:00;;;;;;;39.27;6.83;;;14.70;99.90;;;;;;5041762;28;20716;-68
2021/03/23 16:54:28;;;;;;;42.67;6.80;;;14.70;99.90;;;;;;5041909;28;20731;-69
2021/03/23 16:56:56;;;;;;;48.17;6.50;;;14.80;99.90;;;;;;5033615;28;20242;-69
2021/03/23 16:59:22;;;;;;;43.00;6.43;;;14.60;99.90;;;;;;5043383;28;20202;-69
2021/03/23 17:01:49;;;;;;;41.43;8.10;;;14.50;99.90;;;;;;5040200;28;20179;-68
2021/03/23 17:04:15;;;;;;;44.37;6.17;;;14.50;99.90;;;;;;5042113;28;20210;-68
2021/03/23 17:06:42;;;;;;;39.20;5.87;;;14.40;99.90;;;;;;5040333;28;20188;-69
2021/03/23 17:09:09;;;;;;;35.43;6.23;;;14.50;99.90;;;;;;5034083;28;20222;-70
2021/03/23 17:11:37;;;;;;;37.53;6.43;;;14.50;99.90;;;;;;5021048;28;20639;-69
2021/03/23 17:14:06;;;;;;;51.27;7.30;;;14.50;99.90;;;;;;5041347;28;20207;-69
2021/03/23 17:16:32;;;;;;;38.97;6.50;;;14.50;99.90;;;;;;5024630;28;20186;-68
2021/03/23 17:18:59;;;;;;;51.40;7.50;;;14.50;99.90;;;;;;5042086;28;20214;-69
2021/03/23 17:21:25;;;;;;;51.57;6.60;;;14.40;99.90;;;;;;5044893;28;20258;-69
2021/03/23 17:23:51;;;;;;;41.07;6.87;;;14.10;99.90;;;;;;5043515;28;20205;-70
2021/03/23 17:26:18;;;;;;;40.23;7.17;;;14.00;99.90;;;;;;5043006;28;20555;-70
2021/03/23 17:28:44;;;;;;;35.30;6.43;;;14.00;99.90;;;;;;5043230;28;20194;-68
2021/03/23 17:31:12;;;;;;;49.50;7.10;;;13.90;99.90;;;;;;5045271;28;20184;-69
2021/03/23 17:33:47;;;;;;;45.50;6.17;;;13.70;99.90;;;;;;5039829;28;20179;-68
2021/03/23 17:36:17;;;;;;;44.73;7.23;;;13.80;99.90;;;;;;5042332;28;20199;-70
2021/03/23 17:38:43;;;;;;;42.97;6.17;;;13.80;99.90;;;;;;5042065;28;20187;-68
2021/03/23 17:41:09;;;;;;;54.13;7.10;;;13.60;99.90;;;;;;5034864;28;20568;-68
2021/03/23 17:43:36;;;;;;;45.90;6.37;;;13.70;99.90;;;;;;5042537;28;20198;-69
2021/03/23 17:46:03;;;;;;;53.37;7.57;;;13.80;99.90;;;;;;5042213;28;20207;-69
2021/03/23 17:48:34;;;;;;;43.47;6.50;;;13.80;99.90;;;;;;5040876;28;20195;-69
2021/03/23 17:51:02;;;;;;;54.57;7.27;;;13.80;99.90;;;;;;5038738;28;20187;-68
2021/03/23 17:53:39;;;;;;;41.30;6.73;;;13.70;99.90;;;;;;5040451;28;20612;-69
2021/03/23 17:56:07;;;;;;;42.87;7.03;;;13.60;99.90;;;;;;5040177;28;20179;-69
2021/03/23 17:58:33;;;;;;;36.40;6.87;;;13.60;99.90;;;;;;5036332;28;20192;-69
2021/03/23 18:01:00;;;;;;;47.20;6.40;;;13.70;99.90;;;;;;5039053;28;20213;-68
2021/03/23 18:03:31;;;;;;;59.57;7.80;;;13.70;99.90;;;;;;5044733;28;20195;-69
2021/03/23 18:05:59;;;;;;;37.27;6.30;;;13.70;99.90;;;;;;5039944;28;20223;-68
2021/03/23 18:08:26;;;;;;;48.77;6.83;;;13.60;99.90;;;;;;5040211;28;20214;-69
2021/03/23 18:10:54;;;;;;;46.87;6.37;;;13.40;99.90;;;;;;5037814;28;20184;-68
2021/03/23 18:13:25;;;;;;;40.87;7.17;;;13.10;99.90;;;;;;5034851;28;20204;-69
2021/03/23 18:15:53;;;;;;;39.17;6.80;;;13.10;99.90;;;;;;5046872;28;20194;-71
2021/03/23 18:18:19;;;;;;;33.87;6.40;;;13.20;99.90;;;;;;5027632;28;20789;-69
2021/03/23 18:20:46;;;;;;;38.30;7.10;;;13.10;99.90;;;;;;5045297;28;20499;-70
2021/03/23 18:23:15;;;;;;;37.97;6.00;;;13.10;99.90;;;;;;5045933;28;20196;-68
2021/03/23 18:25:42;;;;;;;37.57;5.97;;;13.00;99.90;;;;;;5048691;28;20245;-70
2021/03/23 18:28:09;;;;;;;33.20;5.97;;;13.00;99.90;;;;;;5046915;28;20679;-68
2021/03/23 18:30:36;;;;;;;29.10;5.77;;;13.10;99.90;;;;;;5044267;28;20639;-70
2021/03/23 18:33:10;;;;;;;32.87;5.80;;;13.10;99.90;;;;;;5044446;28;20221;-70
2021/03/23 18:35:40;;;;;;;42.07;6.17;;;13.10;99.90;;;;;;5044189;28;20187;-69
2021/03/23 18:38:08;;;;;;;39.10;7.30;;;13.00;99.90;;;;;;5041339;28;20963;-68
2021/03/23 18:40:36;;;;;;;36.93;7.00;;;12.90;99.90;;;;;;5045982;28;20194;-69
2021/03/23 18:43:08;;;;;;;30.53;5.07;;;12.90;99.90;;;;;;5034496;28;20540;-70
2021/03/23 18:45:40;;;;;;;30.83;5.27;;;12.70;99.90;;;;;;5043375;28;20207;-69
2021/03/23 18:48:08;;;;;;;33.93;6.13;;;12.60;99.90;;;;;;5045536;28;20186;-70
2021/03/23 18:50:35;;;;;;;28.23;4.73;;;12.60;99.90;;;;;;5029910;28;20195;-68
2021/03/23 18:53:03;;;;;;;26.33;4.43;;;12.60;99.90;;;;;;5041408;28;20816;-68
2021/03/23 18:55:42;;;;;;;29.50;4.37;;;12.40;99.90;;;;;;5044134;28;20190;-69
2021/03/23 18:58:13;;;;;;;25.80;4.13;;;12.50;99.90;;;;;;5041719;28;20289;-69
2021/03/23 19:00:44;;;;;;;25.37;4.20;;;12.40;99.90;;;;;;5041413;28;20191;-69
2021/03/23 19:03:19;;;;;;;25.33;4.60;;;12.30;99.90;;;;;;5047374;28;20269;-68
2021/03/23 19:05:46;;;;;;;27.60;5.50;;;12.40;99.90;;;;;;5047000;28;20874;-68
2021/03/23 19:08:13;;;;;;;22.73;4.43;;;12.30;99.90;;;;;;5047316;28;20639;-69
2021/03/23 19:10:41;;;;;;;33.07;4.73;;;12.10;99.90;;;;;;5045378;28;20395;-68
2021/03/23 19:13:09;;;;;;;20.73;4.40;;;12.00;99.90;;;;;;5035824;28;20183;-68
2021/03/23 19:15:36;;;;;;;20.93;4.57;;;12.00;99.90;;;;;;5056451;28;20236;-69
2021/03/23 19:18:03;;;;;;;22.17;4.47;;;12.00;99.90;;;;;;5044922;28;20188;-68
2021/03/23 19:20:35;;;;;;;25.87;4.60;;;12.00;99.90;;;;;;5045204;28;20802;-68
2021/03/23 19:23:04;;;;;;;24.80;5.03;;;11.90;99.90;;;;;;5045211;28;20179;-67
2021/03/23 19:25:34;;;;;;;24.50;4.67;;;11.90;99.90;;;;;;5045178;28;20211;-68
2021/03/23 19:28:01;;;;;;;25.00;4.17;;;12.10;99.90;;;;;;5043063;28;20216;-69
2021/03/23 19:30:28;;;;;;;21.33;4.73;;;12.10;99.90;;;;;;5040980;28;20181;-70
2021/03/23 19:32:56;;;;;;;24.63;4.97;;;12.20;99.90;;;;;;5042540;28;20187;-67
2021/03/23 19:35:30;;;;;;;20.73;4.47;;;12.30;99.90;;;;;;5041823;28;20190;-69
2021/03/23 19:37:56;;;;;;;21.07;4.87;;;12.40;99.90;;;;;;5024348;28;20196;-69
2021/03/23 19:40:34;;;;;;;25.13;4.53;;;12.40;99.90;;;;;;5061680;28;20195;-70
2021/03/23 19:43:02;;;;;;;20.90;4.47;;;12.40;99.90;;;;;;5039093;28;20187;-69
2021/03/23 19:45:31;;;;;;;17.73;4.20;;;12.40;99.90;;;;;;5034219;28;20985;-68
2021/03/23 19:47:58;;;;;;;24.43;5.20;;;12.40;99.90;;;;;;5027107;28;20210;-67
2021/03/23 19:50:30;;;;;;;21.10;5.13;;;12.40;99.90;;;;;;5046949;28;20250;-68
2021/03/23 19:52:57;;;;;;;22.77;4.67;;;12.50;99.90;;;;;;5043169;28;20198;-70
2021/03/23 19:55:33;;;;;;;26.37;4.60;;;12.50;99.90;;;;;;5044601;28;20187;-68
2021/03/23 19:58:00;;;;;;;27.63;4.57;;;12.50;99.90;;;;;;5042945;28;20230;-69
2021/03/23 20:00:29;;;;;;;20.43;5.10;;;12.60;99.90;;;;;;5043450;28;20176;-69
2021/03/23 20:02:57;;;;;;;28.53;5.43;;;12.70;99.90;;;;;;5040917;28;20188;-69
2021/03/23 20:05:29;;;;;;;24.60;5.20;;;12.70;99.90;;;;;;5038395;28;20211;-69
2021/03/23 20:07:56;;;;;;;26.77;5.13;;;12.70;99.90;;;;;;5043633;28;20226;-68
2021/03/23 20:10:26;;;;;;;23.83;5.47;;;12.80;99.90;;;;;;5045510;28;20902;-69
2021/03/23 20:12:52;;;;;;;16.70;4.37;;;12.80;99.90;;;;;;5039028;28;20315;-70
2021/03/23 20:15:31;;;;;;;24.67;5.07;;;12.80;99.90;;;;;;5029554;28;20187;-69
2021/03/23 20:17:57;;;;;;;23.27;5.43;;;12.70;99.90;;;;;;5041420;28;20240;-68
2021/03/23 20:20:33;;;;;;;22.03;4.43;;;12.70;99.90;;;;;;5037246;28;20694;-69
2021/03/23 20:23:00;;;;;;;16.23;4.90;;;12.60;99.90;;;;;;5043232;28;20282;-67
2021/03/23 20:25:31;;;;;;;18.87;4.43;;;12.50;99.90;;;;;;5044343;28;20571;-69
2021/03/23 20:27:58;;;;;;;22.40;5.23;;;12.50;99.90;;;;;;5041726;28;20740;-68
2021/03/23 20:30:27;;;;;;;28.73;5.07;;;12.40;99.90;;;;;;5041472;28;20187;-70
2021/03/23 20:32:54;;;;;;;15.40;4.30;;;12.50;99.90;;;;;;5041086;28;20556;-67
2021/03/23 20:35:27;;;;;;;26.43;4.47;;;12.50;99.90;;;;;;5043168;28;20188;-67
2021/03/23 20:37:53;;;;;;;27.97;5.00;;;12.50;99.90;;;;;;5040087;28;20216;-69
2021/03/23 20:40:21;;;;;;;27.37;5.73;;;12.60;99.90;;;;;;5041930;28;20200;-70
2021/03/23 20:42:50;;;;;;;20.70;4.93;;;12.60;99.90;;;;;;5037047;28;20796;-68
2021/03/23 20:45:18;;;;;;;29.70;5.33;;;12.50;99.90;;;;;;5037909;28;20211;-69
2021/03/23 20:47:44;;;;;;;23.93;6.13;;;12.40;99.90;;;;;;5030255;28;20660;-68
2021/03/23 20:50:25;;;;;;;25.27;5.73;;;12.20;99.90;;;;;;5021830;28;20611;-69
2021/03/23 20:52:53;;;;;;;20.53;5.37;;;11.90;99.90;;;;;;5025062;28;20226;-68
2021/03/23 20:55:23;;;;;;;19.77;5.17;;;11.60;99.90;;;;;;5035792;28;20585;-71
2021/03/23 20:57:50;;;;;;;21.20;5.43;;;11.50;99.90;;;;;;5038859;28;20191;-70
2021/03/23 21:00:28;;;;;;;20.40;5.33;;;11.40;99.90;;;;;;5038714;28;20221;-70
2021/03/23 21:02:55;;;;;;;29.43;6.77;;;11.40;99.90;;;;;;5040164;28;20192;-70
2021/03/23 21:05:28;;;;;;;30.10;7.13;;;11.30;99.90;;;;;;5038993;28;20206;-69
2021/03/23 21:07:58;;;;;;;33.43;7.07;;;11.50;99.90;;;;;;5037383;28;20693;-69
2021/03/23 21:10:35;;;;;;;28.47;7.10;;;11.50;99.90;;;;;;5041667;28;20183;-69
2021/03/23 21:13:02;;;;;;;32.37;7.47;;;11.60;99.90;;;;;;5045136;28;20202;-69
2021/03/23 21:15:31;;;;;;;43.03;8.53;;;11.50;99.90;;;;;;5038370;28;20187;-70
2021/03/23 21:17:59;;;;;;;38.20;7.67;;;11.70;99.90;;;;;;5032902;28;20188;-68
2021/03/23 21:20:32;;;;;;;33.33;7.03;;;11.60;99.90;;;;;;5039784;28;20743;-70
2021/03/23 21:22:59;;;;;;;24.03;7.03;;;11.60;99.90;;;;;;5040456;28;20199;-70
2021/03/23 21:25:34;;;;;;;36.70;7.17;;;11.60;99.90;;;;;;5039668;28;20531;-69
2021/03/23 21:28:00;;;;;;;35.70;8.07;;;11.60;99.90;;;;;;5038742;28;20183;-69
2021/03/23 21:30:29;;;;;;;33.63;7.87;;;11.70;99.90;;;;;;5038453;28;20325;-69
2021/03/23 21:33:00;;;;;;;42.50;8.10;;;11.70;99.90;;;;;;5042337;28;20187;-69
2021/03/23 21:35:29;;;;;;;28.20;6.40;;;11.70;99.90;;;;;;5042717;28;20278;-70
2021/03/23 21:37:56;;;;;;;33.80;6.60;;;11.70;99.90;;;;;;5040329;28;20184;-69
2021/03/23 21:40:23;;;;;;;25.13;6.10;;;11.70;99.90;;;;;;5041680;28;20215;-69
2021/03/23 21:42:52;;;;;;;25.90;6.07;;;11.70;99.90;;;;;;5040293;28;20738;-70
2021/03/23 21:45:34;;;;;;;12.37;4.00;;;11.60;99.90;;;;;;5024146;28;20587;-69
2021/03/23 21:48:01;;;;;;;18.67;4.67;;;11.30;99.90;;;;;;5027821;28;20797;-69
2021/03/23 21:50:33;;;;;;;10.37;3.43;;;11.20;99.90;;;;;;5031299;28;20192;-68
2021/03/23 21:53:00;;;;;;;15.20;3.37;;;11.00;99.90;;;;;;5032947;28;20691;-69
2021/03/23 21:55:33;;;;;;;25.53;4.63;;;10.70;99.90;;;;;;5040996;28;20184;-69
2021/03/23 21:57:59;;;;;;;26.07;5.10;;;10.70;99.90;;;;;;5042312;28;20187;-67
2021/03/23 22:00:33;;;;;;;23.60;4.50;;;10.80;99.90;;;;;;5036758;28;20199;-69
2021/03/23 22:03:13;;;;;;;23.37;6.23;;;10.90;99.90;;;;;;5035548;28;20195;-69
2021/03/23 22:05:41;;;;;;;31.10;6.13;;;10.90;99.90;;;;;;5041724;28;20211;-68
2021/03/23 22:08:12;;;;;;;24.67;5.80;;;11.00;99.90;;;;;;5038565;28;20191;-68
2021/03/23 22:10:38;;;;;;;28.10;6.33;;;11.00;99.90;;;;;;5039410;28;20294;-66
2021/03/23 22:13:06;;;;;;;29.50;6.40;;;11.10;99.90;;;;;;5042058;28;20191;-67
2021/03/23 22:15:33;;;;;;;31.33;6.57;;;11.10;99.90;;;;;;5049835;28;20196;-66
2021/03/23 22:18:04;;;;;;;29.60;6.67;;;11.10;99.90;;;;;;5040748;28;20187;-66
2021/03/23 22:20:36;;;;;;;18.73;5.50;;;11.10;99.90;;;;;;5053738;28;20645;-66
2021/03/23 22:23:09;;;;;;;25.97;6.43;;;11.10;99.90;;;;;;5047627;28;20241;-65
2021/03/23 22:25:44;;;;;;;29.27;6.33;;;11.20;99.90;;;;;;5043326;28;20238;-67
2021/03/23 22:28:17;;;;;;;21.63;6.00;;;11.20;99.90;;;;;;5031851;28;20232;-66
2021/03/23 22:30:48;;;;;;;23.93;5.40;;;11.20;99.90;;;;;;5045900;28;20279;-68
2021/03/23 22:33:23;;;;;;;24.60;5.90;;;11.30;99.90;;;;;;5031342;28;20719;-67
2021/03/23 22:35:52;;;;;;;26.33;4.90;;;11.30;99.90;;;;;;5024887;28;20233;-70
2021/03/23 22:38:23;;;;;;;31.23;6.10;;;11.30;99.90;;;;;;5041344;28;20188;-67
2021/03/23 22:40:52;;;;;;;30.03;5.73;;;11.30;99.90;;;;;;5041919;28;20270;-67